Essex, Maryland
Current Conditions -  °F | °C
As of 1:45 PM on Thursday 23 Oct 2014 (Local Time) from KMTN Reporting Station
Broken Clouds Broken Clouds  
Wind Chill: 17°   Ceiling: 7500
Heat Index: 17°   Visibility: 10mi
Dew Point: 10°   Wind: 17mph
Humidity: 63%   Direction: 300°WNW
Pressure: 29.82"   Gusts: 25mph
Location:  39.31°N, 76.48°W
Report Text: KMTN 231745Z 30015G22KT 10SM SCT037 BKN075 17/10 A2982
Loading
Personal Weather Stations






























Interactive Weather Map
Tropical Storm Tracking
New forecast layout! Learn more

10-Day Weather Forecast

Advertisements
Track Severe Weather on mobile